Time;durP1;ratioP1;P1;durP2;ratioP2;P2;SDS_P1;SDS_P2;PMS_P1;PMS_P2;Temp;Humidity;BMP_temperature;BMP_pressure;BME280_temperature;BME280_humidity;BME280_pressure;Samples;Min_cycle;Max_cycle;Signal;HPM_P1;HPM_P2
2023/09/04 00:01:45;;;;;;;5.13;4.20;;;;;;;;;;4994693;28;20510;-66
2023/09/04 00:04:11;;;;;;;5.10;4.70;;;;;;;;;;4994120;28;20405;-67
2023/09/04 00:06:40;;;;;;;5.20;5.00;;;;;;;;;;4994306;28;20450;-67
2023/09/04 00:09:06;;;;;;;5.00;4.80;;;;;;;;;;4994212;28;20498;-67
2023/09/04 00:11:32;;;;;;;4.37;4.17;;;;;;;;;;4994735;28;20517;-66
2023/09/04 00:13:58;;;;;;;6.03;5.63;;;;;;;;;;4994282;28;20423;-66
2023/09/04 00:16:24;;;;;;;6.73;6.33;;;;;;;;;;4994345;28;20449;-67
2023/09/04 00:18:50;;;;;;;7.27;6.63;;;;;;;;;;4992403;28;20447;-67
2023/09/04 00:21:18;;;;;;;7.50;7.00;;;;;;;;;;4994054;28;20932;-67
2023/09/04 00:23:44;;;;;;;9.20;8.00;;;;;;;;;;4992642;28;20512;-67
2023/09/04 00:26:10;;;;;;;7.80;7.17;;;;;;;;;;4994070;28;20902;-67
2023/09/04 00:28:36;;;;;;;7.77;7.10;;;;;;;;;;4993708;28;20420;-67
2023/09/04 00:31:02;;;;;;;8.20;7.60;;;;;;;;;;4993996;28;20825;-67
2023/09/04 00:33:28;;;;;;;8.87;7.17;;;;;;;;;;4993224;28;20475;-67
2023/09/04 00:35:56;;;;;;;8.87;7.80;;;;;;;;;;4993537;28;20431;-67
2023/09/04 00:38:22;;;;;;;7.80;7.33;;;;;;;;;;4994195;28;20453;-67
2023/09/04 00:40:50;;;;;;;8.90;8.20;;;;;;;;;;4992178;28;20766;-67
2023/09/04 00:43:16;;;;;;;9.00;8.30;;;;;;;;;;4993584;28;20428;-67
2023/09/04 00:45:43;;;;;;;8.07;7.47;;;;;;;;;;4993651;28;20417;-67
2023/09/04 00:48:10;;;;;;;9.37;8.57;;;;;;;;;;4991373;28;20476;-67
2023/09/04 00:50:37;;;;;;;9.87;9.07;;;;;;;;;;4993734;28;20424;-67
2023/09/04 00:53:05;;;;;;;10.30;9.47;;;;;;;;;;4993281;28;20433;-67
2023/09/04 00:55:31;;;;;;;11.07;9.97;;;;;;;;;;4993423;28;20426;-67
2023/09/04 00:57:58;;;;;;;11.07;10.03;;;;;;;;;;4993426;28;20467;-67
2023/09/04 01:00:27;;;;;;;10.90;9.90;;;;;;;;;;4993219;28;20974;-67
2023/09/04 01:02:53;;;;;;;11.17;9.50;;;;;;;;;;4992853;28;20964;-67
2023/09/04 01:05:22;;;;;;;11.10;9.97;;;;;;;;;;4992797;28;20410;-67
2023/09/04 01:07:48;;;;;;;10.63;9.70;;;;;;;;;;4992123;28;20463;-67
2023/09/04 01:10:17;;;;;;;11.10;9.83;;;;;;;;;;4991747;28;20787;-67
2023/09/04 01:12:46;;;;;;;9.77;9.07;;;;;;;;;;4993195;28;20797;-67
2023/09/04 01:15:13;;;;;;;11.20;10.17;;;;;;;;;;4992532;28;20532;-67
2023/09/04 01:17:42;;;;;;;10.00;9.20;;;;;;;;;;4992810;28;20874;-67
2023/09/04 01:20:23;;;;;;;10.73;9.83;;;;;;;;;;4993295;28;20445;-67
2023/09/04 01:22:48;;;;;;;9.60;8.90;;;;;;;;;;4992928;28;20942;-67
2023/09/04 01:25:15;;;;;;;10.13;9.33;;;;;;;;;;4992974;28;20463;-67
2023/09/04 01:27:43;;;;;;;9.37;8.77;;;;;;;;;;4993132;28;20414;-67
2023/09/04 01:30:09;;;;;;;10.93;9.30;;;;;;;;;;4992810;28;20839;-67
2023/09/04 01:32:38;;;;;;;10.80;9.77;;;;;;;;;;4993335;28;20424;-67
2023/09/04 01:35:06;;;;;;;9.97;9.10;;;;;;;;;;4992964;28;20504;-67
2023/09/04 01:37:32;;;;;;;11.83;10.70;;;;;;;;;;4991951;28;20441;-67
2023/09/04 01:39:58;;;;;;;11.70;10.70;;;;;;;;;;4992488;28;20442;-67
2023/09/04 01:42:24;;;;;;;10.90;9.87;;;;;;;;;;4992642;28;20479;-67
2023/09/04 01:44:50;;;;;;;10.10;9.40;;;;;;;;;;4993083;28;20443;-67
2023/09/04 01:47:16;;;;;;;13.33;11.53;;;;;;;;;;4992626;28;20432;-67
2023/09/04 01:49:42;;;;;;;13.17;10.50;;;;;;;;;;4991806;28;20420;-67
2023/09/04 01:52:09;;;;;;;17.33;11.00;;;;;;;;;;4992698;28;20424;-67
2023/09/04 01:54:38;;;;;;;11.03;10.07;;;;;;;;;;4992838;28;20860;-67
2023/09/04 01:57:06;;;;;;;12.07;10.87;;;;;;;;;;4992680;28;20420;-66
2023/09/04 01:59:33;;;;;;;12.07;11.10;;;;;;;;;;4992793;28;20472;-66
2023/09/04 02:02:02;;;;;;;10.90;10.00;;;;;;;;;;4991168;28;20475;-66
2023/09/04 02:04:31;;;;;;;11.73;10.73;;;;;;;;;;4991717;28;20491;-66
2023/09/04 02:07:00;;;;;;;10.63;9.80;;;;;;;;;;4992712;28;20416;-67
2023/09/04 02:09:26;;;;;;;10.70;9.80;;;;;;;;;;4992857;28;20443;-67
2023/09/04 02:11:52;;;;;;;12.30;10.70;;;;;;;;;;4991704;28;20440;-67
2023/09/04 02:14:18;;;;;;;11.63;10.63;;;;;;;;;;4992388;28;20549;-67
2023/09/04 02:16:44;;;;;;;11.53;10.63;;;;;;;;;;4992688;28;20903;-67
2023/09/04 02:19:10;;;;;;;12.37;11.30;;;;;;;;;;4992707;28;20439;-67
2023/09/04 02:21:36;;;;;;;12.27;11.20;;;;;;;;;;4992361;28;20989;-67
2023/09/04 02:24:02;;;;;;;11.40;10.30;;;;;;;;;;4992641;28;20406;-67
2023/09/04 02:26:30;;;;;;;11.97;9.97;;;;;;;;;;4993328;28;20954;-67
2023/09/04 02:28:56;;;;;;;12.70;11.60;;;;;;;;;;4996234;28;20798;-67
2023/09/04 02:31:22;;;;;;;14.10;11.97;;;;;;;;;;4996049;28;20410;-67
2023/09/04 02:33:48;;;;;;;12.03;10.93;;;;;;;;;;4995039;28;20459;-66
2023/09/04 02:36:14;;;;;;;12.40;11.20;;;;;;;;;;4994957;28;20462;-66
2023/09/04 02:38:43;;;;;;;11.93;10.83;;;;;;;;;;4994606;28;20424;-66
2023/09/04 02:41:11;;;;;;;12.53;11.40;;;;;;;;;;4995996;28;20989;-66
2023/09/04 02:43:40;;;;;;;13.47;12.17;;;;;;;;;;4995584;28;20498;-67
2023/09/04 02:46:06;;;;;;;17.63;12.53;;;;;;;;;;4995908;28;20433;-67
2023/09/04 02:48:32;;;;;;;17.20;12.43;;;;;;;;;;4995796;28;20921;-67
2023/09/04 02:51:01;;;;;;;15.40;13.07;;;;;;;;;;4994515;28;20415;-67
2023/09/04 02:53:27;;;;;;;16.50;12.77;;;;;;;;;;4995755;28;20432;-66
2023/09/04 02:55:54;;;;;;;12.73;11.40;;;;;;;;;;4995327;28;20417;-66
2023/09/04 02:58:20;;;;;;;15.00;13.50;;;;;;;;;;4995793;28;20418;-66
2023/09/04 03:00:46;;;;;;;15.73;13.30;;;;;;;;;;4995581;28;20439;-66
2023/09/04 03:03:12;;;;;;;16.30;14.60;;;;;;;;;;4995247;28;20467;-66
2023/09/04 03:05:39;;;;;;;17.93;13.70;;;;;;;;;;4995570;28;20437;-66
2023/09/04 03:08:08;;;;;;;14.53;13.10;;;;;;;;;;4995080;28;20832;-66
2023/09/04 03:10:34;;;;;;;14.80;13.23;;;;;;;;;;4995297;28;20440;-66
2023/09/04 03:13:00;;;;;;;15.87;12.90;;;;;;;;;;4995161;28;20441;-67
2023/09/04 03:15:26;;;;;;;14.20;12.90;;;;;;;;;;4995284;28;20447;-65
2023/09/04 03:17:52;;;;;;;17.90;12.93;;;;;;;;;;4995259;28;20427;-67
2023/09/04 03:20:20;;;;;;;14.13;12.63;;;;;;;;;;4994887;28;20446;-65
2023/09/04 03:22:47;;;;;;;16.27;14.10;;;;;;;;;;4995344;28;20467;-65
2023/09/04 03:25:12;;;;;;;13.83;12.43;;;;;;;;;;4995080;28;20469;-67
2023/09/04 03:27:38;;;;;;;14.30;12.90;;;;;;;;;;4994828;28;20472;-65
2023/09/04 03:30:05;;;;;;;14.10;12.77;;;;;;;;;;4995159;28;20415;-65
2023/09/04 03:32:31;;;;;;;17.00;12.83;;;;;;;;;;4994396;28;20446;-65
2023/09/04 03:34:59;;;;;;;13.40;12.10;;;;;;;;;;4995033;28;20441;-65
2023/09/04 03:37:25;;;;;;;14.27;12.77;;;;;;;;;;4994779;28;20399;-65
2023/09/04 03:39:51;;;;;;;14.00;11.80;;;;;;;;;;4994980;28;20903;-65
2023/09/04 03:42:20;;;;;;;13.37;12.17;;;;;;;;;;4994524;28;20474;-65
2023/09/04 03:44:45;;;;;;;13.87;12.40;;;;;;;;;;4994720;28;20419;-65
2023/09/04 03:47:11;;;;;;;15.70;11.40;;;;;;;;;;4993524;28;20476;-65
2023/09/04 03:49:37;;;;;;;12.10;11.00;;;;;;;;;;4994290;28;20420;-65
2023/09/04 03:52:04;;;;;;;11.13;10.20;;;;;;;;;;4994591;28;20422;-65
2023/09/04 03:54:29;;;;;;;11.27;10.27;;;;;;;;;;4994609;28;20447;-65
2023/09/04 03:56:56;;;;;;;10.87;9.87;;;;;;;;;;4994537;28;20760;-65
2023/09/04 03:59:22;;;;;;;10.10;9.37;;;;;;;;;;4994551;28;20463;-65
2023/09/04 04:01:48;;;;;;;11.03;10.13;;;;;;;;;;4994205;28;20462;-65
2023/09/04 04:04:14;;;;;;;10.63;9.63;;;;;;;;;;4994312;28;20419;-65
2023/09/04 04:06:40;;;;;;;15.40;11.03;;;;;;;;;;4994359;28;20502;-65
2023/09/04 04:09:06;;;;;;;12.30;10.83;;;;;;;;;;4993219;28;20418;-65
2023/09/04 04:11:33;;;;;;;12.20;11.10;;;;;;;;;;4992856;28;20427;-65
2023/09/04 04:13:59;;;;;;;16.13;14.53;;;;;;;;;;4994486;28;20420;-65
2023/09/04 04:16:25;;;;;;;13.00;11.70;;;;;;;;;;4992849;28;20459;-65
2023/09/04 04:18:51;;;;;;;11.30;10.27;;;;;;;;;;4994460;28;20410;-65
2023/09/04 04:21:19;;;;;;;12.63;11.53;;;;;;;;;;4992538;28;20477;-67
2023/09/04 04:23:47;;;;;;;13.53;12.17;;;;;;;;;;4993819;28;20438;-65
2023/09/04 04:26:13;;;;;;;11.77;10.67;;;;;;;;;;4993955;28;20426;-66
2023/09/04 04:28:39;;;;;;;14.90;10.57;;;;;;;;;;4993760;28;21093;-66
2023/09/04 04:31:05;;;;;;;13.97;12.20;;;;;;;;;;4993958;28;20445;-66
2023/09/04 04:33:31;;;;;;;15.20;12.40;;;;;;;;;;4993996;28;20474;-65
2023/09/04 04:36:03;;;;;;;20.00;12.50;;;;;;;;;;4993797;28;20525;-66
2023/09/04 04:38:29;;;;;;;16.70;13.00;;;;;;;;;;4993400;28;20426;-65
2023/09/04 04:40:56;;;;;;;16.07;14.47;;;;;;;;;;4993746;28;20606;-65
2023/09/04 04:43:22;;;;;;;12.57;11.27;;;;;;;;;;4993963;28;20422;-67
2023/09/04 04:45:48;;;;;;;13.63;12.10;;;;;;;;;;4993677;28;20983;-66
2023/09/04 04:48:14;;;;;;;13.17;11.93;;;;;;;;;;4992967;28;20441;-66
2023/09/04 04:50:40;;;;;;;23.03;19.60;;;;;;;;;;4991775;28;20445;-67
2023/09/04 04:53:08;;;;;;;17.17;15.57;;;;;;;;;;4993196;28;20419;-66
2023/09/04 04:55:37;;;;;;;20.00;16.40;;;;;;;;;;4993018;28;20456;-67
2023/09/04 04:58:03;;;;;;;19.17;15.40;;;;;;;;;;4993309;28;20448;-67
2023/09/04 05:00:29;;;;;;;20.27;17.17;;;;;;;;;;4992260;28;20533;-66
2023/09/04 05:02:55;;;;;;;21.10;16.83;;;;;;;;;;4993474;28;20964;-67
2023/09/04 05:05:21;;;;;;;19.20;17.10;;;;;;;;;;4993607;28;20394;-67
2023/09/04 05:07:47;;;;;;;24.50;18.87;;;;;;;;;;4992918;28;20499;-67
2023/09/04 05:10:13;;;;;;;26.53;20.17;;;;;;;;;;4993371;28;20452;-66
2023/09/04 05:12:39;;;;;;;26.87;19.20;;;;;;;;;;4993517;28;20402;-65
2023/09/04 05:15:06;;;;;;;23.40;19.03;;;;;;;;;;4993145;28;20444;-66
2023/09/04 05:17:32;;;;;;;31.03;21.43;;;;;;;;;;4993120;28;21161;-66
2023/09/04 05:19:58;;;;;;;31.30;21.00;;;;;;;;;;4993240;28;20457;-66
2023/09/04 05:22:24;;;;;;;36.93;24.30;;;;;;;;;;4992731;28;20858;-66
2023/09/04 05:24:50;;;;;;;37.60;24.37;;;;;;;;;;4992727;28;20413;-66
2023/09/04 05:27:16;;;;;;;44.47;27.50;;;;;;;;;;4993318;28;20446;-66
2023/09/04 05:29:45;;;;;;;44.23;26.60;;;;;;;;;;4992962;28;20413;-66
2023/09/04 05:32:13;;;;;;;52.80;29.40;;;;;;;;;;4993046;28;20438;-66
2023/09/04 05:34:40;;;;;;;59.73;31.43;;;;;;;;;;4992702;28;20430;-67
2023/09/04 05:37:07;;;;;;;60.87;29.90;;;;;;;;;;4991342;28;20895;-65
2023/09/04 05:39:33;;;;;;;43.63;27.60;;;;;;;;;;4992866;28;20415;-65
2023/09/04 05:41:59;;;;;;;60.83;29.80;;;;;;;;;;4991343;28;20850;-65
2023/09/04 05:44:25;;;;;;;48.57;30.33;;;;;;;;;;4992675;28;20453;-67
2023/09/04 05:46:51;;;;;;;61.57;32.10;;;;;;;;;;4992742;28;20441;-66
2023/09/04 05:49:17;;;;;;;47.57;29.13;;;;;;;;;;4992469;28;20412;-66
2023/09/04 05:51:43;;;;;;;42.30;26.67;;;;;;;;;;4992431;28;20434;-66
2023/09/04 05:54:09;;;;;;;59.30;28.53;;;;;;;;;;4992540;28;20829;-66
2023/09/04 05:56:35;;;;;;;42.80;27.20;;;;;;;;;;4992652;28;20457;-66
2023/09/04 05:59:01;;;;;;;52.63;28.80;;;;;;;;;;4992591;28;20415;-66
2023/09/04 06:01:27;;;;;;;50.50;27.63;;;;;;;;;;4994997;28;20478;-66
2023/09/04 06:03:55;;;;;;;40.27;26.37;;;;;;;;;;4996514;28;20406;-66
2023/09/04 06:06:21;;;;;;;38.00;25.57;;;;;;;;;;4996212;28;20541;-66
2023/09/04 06:08:47;;;;;;;44.20;25.90;;;;;;;;;;4995902;28;20476;-66
2023/09/04 06:11:13;;;;;;;42.60;26.43;;;;;;;;;;4995442;28;20917;-66
2023/09/04 06:13:42;;;;;;;32.60;24.13;;;;;;;;;;4996654;28;20508;-66
2023/09/04 06:16:07;;;;;;;38.77;26.03;;;;;;;;;;4996378;28;20505;-67
2023/09/04 06:18:35;;;;;;;42.90;26.27;;;;;;;;;;4995108;28;20499;-66
2023/09/04 06:21:01;;;;;;;57.07;27.10;;;;;;;;;;4995956;28;20784;-66
2023/09/04 06:23:27;;;;;;;39.10;24.80;;;;;;;;;;4995039;28;20497;-66
2023/09/04 06:25:53;;;;;;;56.73;26.37;;;;;;;;;;4995546;28;20884;-66
2023/09/04 06:28:23;;;;;;;39.00;25.00;;;;;;;;;;4995982;28;20514;-66
2023/09/04 06:30:49;;;;;;;34.63;25.17;;;;;;;;;;4994887;28;20472;-66
2023/09/04 06:33:15;;;;;;;35.30;24.37;;;;;;;;;;4995500;28;20438;-66
2023/09/04 06:35:41;;;;;;;52.23;25.93;;;;;;;;;;4996299;28;20425;-66
2023/09/04 06:38:12;;;;;;;46.47;25.70;;;;;;;;;;4995984;28;20791;-66
2023/09/04 06:40:38;;;;;;;34.47;23.10;;;;;;;;;;4994941;28;20926;-66
2023/09/04 06:43:04;;;;;;;40.50;25.50;;;;;;;;;;4995912;28;20464;-66
2023/09/04 06:45:30;;;;;;;45.77;26.80;;;;;;;;;;4994303;28;20423;-66
2023/09/04 06:47:58;;;;;;;39.40;26.20;;;;;;;;;;4995251;28;20451;-66
2023/09/04 06:50:24;;;;;;;33.93;23.90;;;;;;;;;;4995581;28;20419;-66
2023/09/04 06:52:52;;;;;;;31.30;22.80;;;;;;;;;;4995689;28;20459;-66
2023/09/04 06:55:19;;;;;;;37.80;25.07;;;;;;;;;;4995652;28;20570;-66
2023/09/04 06:57:47;;;;;;;33.97;23.73;;;;;;;;;;4995442;28;20446;-66
2023/09/04 07:00:16;;;;;;;38.90;26.30;;;;;;;;;;4995374;28;20417;-66
2023/09/04 07:02:42;;;;;;;29.40;21.40;;;;;;;;;;4995363;28;20577;-68
2023/09/04 07:05:08;;;;;;;34.13;24.90;;;;;;;;;;4995298;28;21008;-66
2023/09/04 07:07:37;;;;;;;42.30;24.33;;;;;;;;;;4995246;28;20429;-66
2023/09/04 07:10:03;;;;;;;39.30;24.53;;;;;;;;;;4995501;28;20422;-65
2023/09/04 07:12:31;;;;;;;42.77;27.10;;;;;;;;;;4994743;28;20428;-65
2023/09/04 07:14:57;;;;;;;28.93;21.30;;;;;;;;;;4995566;28;20424;-65
2023/09/04 07:17:29;;;;;;;32.30;20.73;;;;;;;;;;5000698;28;20517;-65
2023/09/04 07:19:55;;;;;;;32.87;22.13;;;;;;;;;;5000226;28;20418;-65
2023/09/04 07:22:21;;;;;;;31.07;21.70;;;;;;;;;;5000397;28;20476;-65
2023/09/04 07:24:50;;;;;;;29.30;21.00;;;;;;;;;;4998033;28;20412;-65
2023/09/04 07:27:16;;;;;;;35.37;25.33;;;;;;;;;;4995610;28;20406;-65
2023/09/04 07:29:42;;;;;;;35.90;22.30;;;;;;;;;;4995308;28;20419;-65
2023/09/04 07:32:08;;;;;;;46.67;34.37;;;;;;;;;;4995065;28;20445;-66
2023/09/04 07:34:34;;;;;;;38.33;27.20;;;;;;;;;;4995349;28;20644;-66
2023/09/04 07:37:00;;;;;;;33.33;22.43;;;;;;;;;;4994738;28;20427;-66
2023/09/04 07:39:26;;;;;;;30.63;23.03;;;;;;;;;;4994750;28;20423;-66
2023/09/04 07:41:55;;;;;;;29.13;21.90;;;;;;;;;;4994487;28;20544;-66
2023/09/04 07:44:20;;;;;;;32.20;22.67;;;;;;;;;;4994689;28;20815;-66
2023/09/04 07:46:46;;;;;;;32.20;24.80;;;;;;;;;;4994881;28;20414;-66
2023/09/04 07:49:15;;;;;;;27.70;21.40;;;;;;;;;;4995163;28;20910;-65
2023/09/04 07:51:41;;;;;;;29.43;22.10;;;;;;;;;;4995130;28;20505;-66
2023/09/04 07:54:07;;;;;;;31.07;21.80;;;;;;;;;;4994942;28;20564;-65
2023/09/04 07:56:33;;;;;;;33.33;22.47;;;;;;;;;;4994874;28;20417;-65
2023/09/04 07:58:58;;;;;;;26.73;21.63;;;;;;;;;;4994859;28;20412;-65
2023/09/04 08:01:24;;;;;;;23.20;19.70;;;;;;;;;;4994170;28;20961;-65
2023/09/04 08:03:50;;;;;;;26.87;20.57;;;;;;;;;;4994371;28;20508;-65
2023/09/04 08:06:16;;;;;;;24.27;20.27;;;;;;;;;;4992933;28;20415;-65
2023/09/04 08:08:42;;;;;;;24.90;19.03;;;;;;;;;;4994368;28;20447;-65
2023/09/04 08:11:10;;;;;;;27.60;21.33;;;;;;;;;;4994231;28;20425;-65
2023/09/04 08:13:36;;;;;;;30.20;21.93;;;;;;;;;;4993851;28;20508;-65
2023/09/04 08:16:02;;;;;;;28.73;21.80;;;;;;;;;;4992909;28;20500;-65
2023/09/04 08:18:28;;;;;;;24.80;20.77;;;;;;;;;;4994067;28;20462;-65
2023/09/04 08:20:58;;;;;;;25.50;17.67;;;;;;;;;;4994321;28;20453;-65
2023/09/04 08:23:24;;;;;;;19.07;16.23;;;;;;;;;;4993957;28;20968;-65
2023/09/04 08:25:57;;;;;;;22.03;16.70;;;;;;;;;;4994357;28;20497;-65
2023/09/04 08:28:23;;;;;;;20.00;16.33;;;;;;;;;;4993649;28;20440;-65
2023/09/04 08:30:49;;;;;;;15.83;14.20;;;;;;;;;;4994077;28;20414;-65
2023/09/04 08:33:15;;;;;;;15.23;13.73;;;;;;;;;;4993891;28;20446;-65
2023/09/04 08:35:41;;;;;;;15.43;13.83;;;;;;;;;;4993717;28;20844;-65
2023/09/04 08:38:07;;;;;;;15.83;14.20;;;;;;;;;;4992548;28;20458;-65
2023/09/04 08:40:34;;;;;;;21.13;13.40;;;;;;;;;;4993529;28;20521;-65
2023/09/04 08:43:01;;;;;;;12.90;11.70;;;;;;;;;;4993686;28;20483;-65
2023/09/04 08:45:27;;;;;;;13.00;10.90;;;;;;;;;;4993242;28;20447;-66
2023/09/04 08:47:55;;;;;;;13.33;12.03;;;;;;;;;;4993590;28;20435;-66
2023/09/04 08:50:23;;;;;;;11.93;10.93;;;;;;;;;;4993302;28;20439;-65
2023/09/04 08:52:52;;;;;;;15.77;11.40;;;;;;;;;;4993361;28;20443;-65
2023/09/04 08:55:19;;;;;;;12.30;11.20;;;;;;;;;;4993555;28;20417;-65
2023/09/04 08:57:45;;;;;;;13.03;9.97;;;;;;;;;;4993356;28;20413;-65
2023/09/04 09:00:12;;;;;;;10.67;9.73;;;;;;;;;;4993173;28;20452;-65
2023/09/04 09:02:39;;;;;;;17.50;10.30;;;;;;;;;;4992968;28;20479;-65
2023/09/04 09:05:07;;;;;;;9.90;9.10;;;;;;;;;;4993403;28;20446;-65
2023/09/04 09:07:39;;;;;;;9.60;8.60;;;;;;;;;;4993202;28;20428;-65
2023/09/04 09:10:08;;;;;;;7.50;6.90;;;;;;;;;;4991781;28;20463;-65
2023/09/04 09:12:36;;;;;;;9.67;8.90;;;;;;;;;;4992509;28;20428;-65
2023/09/04 09:15:02;;;;;;;8.83;8.03;;;;;;;;;;4993487;28;20404;-65
2023/09/04 09:17:28;;;;;;;8.50;7.80;;;;;;;;;;4993186;28;20461;-65
2023/09/04 09:19:54;;;;;;;8.77;8.03;;;;;;;;;;4991420;28;20927;-65
2023/09/04 09:22:22;;;;;;;8.53;7.13;;;;;;;;;;4993031;28;20899;-65
2023/09/04 09:24:53;;;;;;;7.00;6.50;;;;;;;;;;4992893;28;20902;-65
2023/09/04 09:27:19;;;;;;;7.63;7.23;;;;;;;;;;4992633;28;20426;-65
2023/09/04 09:29:46;;;;;;;6.80;6.40;;;;;;;;;;4993247;28;20416;-65
2023/09/04 09:32:12;;;;;;;7.27;6.57;;;;;;;;;;4992899;28;20788;-66
2023/09/04 09:34:39;;;;;;;5.60;5.30;;;;;;;;;;4992676;28;20898;-66
2023/09/04 09:37:08;;;;;;;6.30;5.90;;;;;;;;;;4992658;28;20464;-66
2023/09/04 09:39:35;;;;;;;5.43;5.07;;;;;;;;;;4991757;28;20485;-66
2023/09/04 09:42:02;;;;;;;4.93;4.70;;;;;;;;;;4992926;28;20559;-66
2023/09/04 09:44:34;;;;;;;4.93;4.67;;;;;;;;;;4992642;28;20425;-66
2023/09/04 09:47:00;;;;;;;6.73;6.07;;;;;;;;;;4992710;28;20859;-66
2023/09/04 09:49:30;;;;;;;7.00;5.30;;;;;;;;;;4992811;28;20442;-66
2023/09/04 09:51:58;;;;;;;5.50;5.10;;;;;;;;;;4992424;28;20889;-66
2023/09/04 09:54:34;;;;;;;5.00;4.80;;;;;;;;;;4992957;28;20453;-66
2023/09/04 09:57:01;;;;;;;6.07;5.67;;;;;;;;;;4992716;28;20427;-66
2023/09/04 09:59:29;;;;;;;5.27;5.07;;;;;;;;;;4991594;28;20490;-66
2023/09/04 10:01:55;;;;;;;5.20;4.87;;;;;;;;;;4992826;28;20511;-66
2023/09/04 10:04:22;;;;;;;5.43;5.13;;;;;;;;;;4992789;28;20494;-66
2023/09/04 10:06:49;;;;;;;6.07;4.40;;;;;;;;;;4992534;28;20897;-66
2023/09/04 10:09:17;;;;;;;4.47;4.10;;;;;;;;;;4992203;28;20414;-66
2023/09/04 10:11:44;;;;;;;6.40;5.10;;;;;;;;;;4992101;28;20448;-66
2023/09/04 10:14:18;;;;;;;4.93;4.80;;;;;;;;;;4992813;28;20927;-66
2023/09/04 10:16:49;;;;;;;5.07;4.60;;;;;;;;;;4992121;28;20928;-66
2023/09/04 10:19:17;;;;;;;4.73;4.53;;;;;;;;;;4991424;28;20982;-66
2023/09/04 10:21:47;;;;;;;4.37;4.27;;;;;;;;;;4991133;28;20471;-66
2023/09/04 10:24:14;;;;;;;4.10;4.00;;;;;;;;;;4992345;28;20598;-66
2023/09/04 10:26:58;;;;;;;4.00;3.90;;;;;;;;;;4991880;28;20476;-66
2023/09/04 10:29:27;;;;;;;3.57;3.27;;;;;;;;;;4992403;28;20560;-66
2023/09/04 10:31:55;;;;;;;3.97;3.60;;;;;;;;;;4992432;28;20448;-66
2023/09/04 10:34:21;;;;;;;3.03;2.93;;;;;;;;;;4992190;28;20476;-66
2023/09/04 10:36:48;;;;;;;3.30;3.10;;;;;;;;;;4990668;28;20421;-66
2023/09/04 10:39:17;;;;;;;3.30;3.20;;;;;;;;;;4992087;28;20418;-66
2023/09/04 10:41:43;;;;;;;3.30;3.20;;;;;;;;;;4992256;28;20472;-66
2023/09/04 10:44:11;;;;;;;3.13;3.00;;;;;;;;;;4992387;28;20413;-66
2023/09/04 10:46:56;;;;;;;3.97;3.67;;;;;;;;;;4991130;28;20425;-66
2023/09/04 10:49:33;;;;;;;3.30;3.20;;;;;;;;;;4995570;28;20540;-66
2023/09/04 10:51:59;;;;;;;11.07;9.93;;;;;;;;;;4995508;28;20426;-66
2023/09/04 10:54:28;;;;;;;6.50;6.07;;;;;;;;;;4995678;28;20825;-66
2023/09/04 10:57:01;;;;;;;5.77;3.13;;;;;;;;;;4995744;28;20421;-66
2023/09/04 10:59:28;;;;;;;2.97;2.87;;;;;;;;;;4995342;28;20528;-66
2023/09/04 11:01:56;;;;;;;3.10;3.00;;;;;;;;;;4995041;28;20465;-66
2023/09/04 11:04:44;;;;;;;3.37;3.27;;;;;;;;;;4995525;28;20479;-66
2023/09/04 11:07:23;;;;;;;2.90;2.80;;;;;;;;;;4995690;28;20449;-66
2023/09/04 11:09:52;;;;;;;3.10;2.93;;;;;;;;;;4995534;28;20850;-66
2023/09/04 11:12:24;;;;;;;3.00;2.90;;;;;;;;;;4995315;28;20910;-66
2023/09/04 11:14:54;;;;;;;4.70;3.33;;;;;;;;;;4993974;28;20812;-66
2023/09/04 11:17:23;;;;;;;2.70;2.70;;;;;;;;;;4995212;28;20448;-66
2023/09/04 11:19:52;;;;;;;3.00;2.90;;;;;;;;;;4995308;28;20440;-66
2023/09/04 11:22:22;;;;;;;3.10;3.00;;;;;;;;;;4995030;28;20473;-66
2023/09/04 11:24:51;;;;;;;3.77;3.57;;;;;;;;;;4994908;28;20418;-66
2023/09/04 11:27:19;;;;;;;2.73;2.60;;;;;;;;;;4995242;28;20529;-66
2023/09/04 11:29:45;;;;;;;2.80;2.70;;;;;;;;;;4994934;28;20450;-67
2023/09/04 11:32:12;;;;;;;2.60;2.50;;;;;;;;;;4995191;28;20772;-67
2023/09/04 11:34:38;;;;;;;2.90;2.60;;;;;;;;;;4995054;28;20443;-67
2023/09/04 11:37:05;;;;;;;2.50;2.40;;;;;;;;;;4994723;28;20956;-67
2023/09/04 11:39:31;;;;;;;2.37;2.37;;;;;;;;;;4994833;28;20890;-67
2023/09/04 11:41:57;;;;;;;2.70;2.60;;;;;;;;;;4994554;28;20576;-67
2023/09/04 11:44:25;;;;;;;4.63;2.50;;;;;;;;;;4994927;28;20509;-67
2023/09/04 11:46:53;;;;;;;5.10;4.90;;;;;;;;;;4994408;28;20413;-67
2023/09/04 11:49:21;;;;;;;2.93;2.70;;;;;;;;;;4994755;28;20434;-66
2023/09/04 11:51:48;;;;;;;2.23;2.23;;;;;;;;;;4994754;28;20410;-66
2023/09/04 11:54:14;;;;;;;4.53;2.47;;;;;;;;;;4995283;28;20438;-66
2023/09/04 11:56:40;;;;;;;3.27;3.07;;;;;;;;;;4994661;28;20497;-67
2023/09/04 11:59:06;;;;;;;5.43;2.70;;;;;;;;;;4992673;28;20457;-66
2023/09/04 12:01:33;;;;;;;2.47;2.43;;;;;;;;;;4994419;28;20565;-66
2023/09/04 12:04:01;;;;;;;2.97;2.87;;;;;;;;;;4994245;28;20410;-66
2023/09/04 12:06:28;;;;;;;3.07;2.97;;;;;;;;;;4977060;28;20511;-66
2023/09/04 12:08:54;;;;;;;3.43;3.30;;;;;;;;;;4994222;28;20765;-66
2023/09/04 12:11:24;;;;;;;2.87;2.77;;;;;;;;;;4994057;28;20411;-66
2023/09/04 12:13:50;;;;;;;4.57;2.90;;;;;;;;;;4994114;28;20418;-67
2023/09/04 12:16:19;;;;;;;3.20;3.10;;;;;;;;;;4993768;28;20953;-67
2023/09/04 12:18:45;;;;;;;2.80;2.70;;;;;;;;;;4993773;28;20414;-67
2023/09/04 12:21:11;;;;;;;3.03;2.93;;;;;;;;;;4993904;28;20424;-67
2023/09/04 12:23:43;;;;;;;3.40;3.20;;;;;;;;;;4992655;28;20449;-67
2023/09/04 12:26:11;;;;;;;2.90;2.80;;;;;;;;;;4993972;28;20426;-67
2023/09/04 12:28:42;;;;;;;2.80;2.70;;;;;;;;;;4976418;28;20422;-67
2023/09/04 12:31:09;;;;;;;3.23;2.93;;;;;;;;;;4994081;28;20421;-67
2023/09/04 12:33:41;;;;;;;3.27;3.17;;;;;;;;;;4993658;28;20430;-67
2023/09/04 12:36:08;;;;;;;2.70;2.70;;;;;;;;;;4993798;28;20501;-67
2023/09/04 12:38:35;;;;;;;3.73;2.60;;;;;;;;;;4993368;28;20441;-67
2023/09/04 12:41:01;;;;;;;4.30;3.10;;;;;;;;;;4992638;28;20448;-67
2023/09/04 12:43:30;;;;;;;5.20;5.00;;;;;;;;;;4992451;28;20469;-67
2023/09/04 12:45:58;;;;;;;2.97;2.87;;;;;;;;;;4993660;28;20480;-67
2023/09/04 12:48:24;;;;;;;2.80;2.70;;;;;;;;;;4992700;28;20450;-67
2023/09/04 12:50:53;;;;;;;2.70;2.60;;;;;;;;;;4993349;28;20786;-67
2023/09/04 12:53:19;;;;;;;7.23;2.63;;;;;;;;;;4993096;28;20421;-67
2023/09/04 12:55:47;;;;;;;3.00;3.00;;;;;;;;;;4993252;28;20445;-67
2023/09/04 12:58:14;;;;;;;2.80;2.80;;;;;;;;;;4993039;28;20814;-67
2023/09/04 13:00:43;;;;;;;3.37;3.20;;;;;;;;;;4991714;28;20418;-67
2023/09/04 13:03:10;;;;;;;3.33;3.07;;;;;;;;;;4993247;28;20478;-67
2023/09/04 13:05:36;;;;;;;3.03;2.80;;;;;;;;;;4991609;28;20813;-67
2023/09/04 13:08:04;;;;;;;3.40;3.10;;;;;;;;;;4993045;28;20430;-67
2023/09/04 13:10:30;;;;;;;4.60;2.10;;;;;;;;;;4992549;28;20524;-67
2023/09/04 13:12:56;;;;;;;3.23;3.00;;;;;;;;;;4993043;28;20901;-67
2023/09/04 13:15:23;;;;;;;3.27;2.97;;;;;;;;;;4992862;28;20500;-67
2023/09/04 13:17:48;;;;;;;2.73;2.50;;;;;;;;;;4992842;28;20418;-67
2023/09/04 13:20:17;;;;;;;2.83;2.70;;;;;;;;;;4993347;28;20451;-67
2023/09/04 13:22:44;;;;;;;2.90;2.90;;;;;;;;;;4992964;28;20233;-67
2023/09/04 13:25:10;;;;;;;2.97;2.77;;;;;;;;;;4992594;28;20505;-67
2023/09/04 13:27:36;;;;;;;2.70;2.60;;;;;;;;;;4991829;28;20505;-67
2023/09/04 13:30:03;;;;;;;3.00;2.93;;;;;;;;;;4992507;28;20800;-67
2023/09/04 13:32:32;;;;;;;2.70;2.70;;;;;;;;;;4992477;28;20418;-67
2023/09/04 13:34:58;;;;;;;2.20;2.20;;;;;;;;;;4992357;28;20487;-67
2023/09/04 13:37:24;;;;;;;6.10;2.60;;;;;;;;;;4992711;28;20433;-67
2023/09/04 13:39:50;;;;;;;3.93;2.70;;;;;;;;;;4993114;28;20528;-67
2023/09/04 13:42:20;;;;;;;2.87;2.77;;;;;;;;;;4992224;28;20553;-67
2023/09/04 13:44:46;;;;;;;2.47;2.47;;;;;;;;;;4992929;28;20418;-67
2023/09/04 13:47:12;;;;;;;2.60;2.50;;;;;;;;;;4992936;28;20472;-66
2023/09/04 13:49:38;;;;;;;2.77;2.67;;;;;;;;;;4992677;28;20418;-66
2023/09/04 13:52:04;;;;;;;2.83;2.77;;;;;;;;;;4992860;28;20418;-66
2023/09/04 13:54:30;;;;;;;3.10;3.00;;;;;;;;;;4992577;28;20430;-66
2023/09/04 13:56:59;;;;;;;2.43;2.43;;;;;;;;;;4992569;28;20421;-66
2023/09/04 13:59:26;;;;;;;2.77;2.67;;;;;;;;;;4990361;28;20503;-66
2023/09/04 14:01:52;;;;;;;2.17;2.17;;;;;;;;;;4992581;28;20521;-66
2023/09/04 14:04:18;;;;;;;2.70;2.60;;;;;;;;;;4992341;28;20557;-66
2023/09/04 14:06:44;;;;;;;2.30;2.20;;;;;;;;;;4992182;28;20450;-66
2023/09/04 14:09:11;;;;;;;3.23;3.03;;;;;;;;;;4992650;28;20418;-66
2023/09/04 14:11:40;;;;;;;2.23;2.13;;;;;;;;;;4992215;28;20206;-66
2023/09/04 14:14:05;;;;;;;2.73;2.63;;;;;;;;;;4992524;28;20445;-66
2023/09/04 14:16:34;;;;;;;2.57;2.47;;;;;;;;;;4992663;28;20889;-66
2023/09/04 14:19:00;;;;;;;2.13;2.13;;;;;;;;;;4992697;28;20468;-65
2023/09/04 14:21:28;;;;;;;7.07;2.47;;;;;;;;;;4993395;28;20445;-65
2023/09/04 14:23:54;;;;;;;3.00;2.90;;;;;;;;;;4996616;28;20464;-65
2023/09/04 14:26:20;;;;;;;2.60;2.50;;;;;;;;;;4996367;28;20441;-65
2023/09/04 14:28:46;;;;;;;3.60;2.50;;;;;;;;;;4996561;28;20457;-65